Prince Basel — H3VK — position and weather

sailwx.info

Track history (hours):
 
Tides and Currents Weather Stations Pressure Air Temp Water Temp Dewpoint Dewpoint Depression Visibility Wind Speed Wind Dir Waves Ship Positions

Prince Basel

Last reported at 2018-Jun-10 19:12 UTC. Time now 2018-Jun-20 17:28 UTC.
Position N 39°38' W 000°13'.
Warning: this ship's position is 9 days out of date.

Length 101 m; draft 4.5 m.

Type: Cargo ship. MMSI: 374421000.

Date/timePositionNaut miles runAvg speedWind from/ knotsBaromVisibWave heightAir tempDewpointWater temp
2018-Jun-10 19:12N 39°38' W 000°13'  
2018-Jun-06 14:49N 39°39' W 000°13'2 6.8
2018-Jun-06 14:29N 39°37' W 000°12'1 2.7
2018-Jun-06 13:59N 39°36' W 000°10'0 0.0
2018-Jun-06 08:24N 39°36' W 000°10'4 7.8
2018-Jun-06 07:57N 39°33' W 000°08'6611.4
2018-Jun-06 02:10N 38°31' E 000°21'1512.6
2018-Jun-06 00:58N 38°16' E 000°15'612.6
2018-Jun-06 00:31N 38°10' E 000°13'151 4.1
2018-Jun-04 11:28N 35°44' W 000°36'  
2018-Jun-01 17:58N 35°44' W 000°36'0 0.0
2018-Jun-01 13:58N 35°44' W 000°36'0 0.0
2018-May-31 21:21N 35°44' W 000°36'0 0.0
2018-May-31 20:33N 35°44' W 000°36'0 0.1
2018-May-31 20:27N 35°44' W 000°36'0 0.0
2018-May-31 19:45N 35°44' W 000°36'0 0.1
2018-May-31 19:27N 35°44' W 000°36'  
Track history (hours):
 
Tides and Currents Weather Stations Pressure Air Temp Water Temp Dewpoint Dewpoint Depression Visibility Wind Speed Wind Dir Waves Ship Positions

Prince Basel

Last reported at 2018-Jun-10 19:12 UTC. Time now 2018-Jun-20 17:28 UTC.
Position N 39°38' W 000°13'.
Warning: this ship's position is 9 days out of date.

Length 101 m; draft 4.5 m.

Type: Cargo ship. MMSI: 374421000.

Date/timePositionNaut miles runAvg speedWind from/ knotsBaromVisibWave heightAir tempDewpointWater temp
2018-Jun-10 19:12N 39°38' W 000°13'  
2018-Jun-06 14:49N 39°39' W 000°13'2 6.8
2018-Jun-06 14:29N 39°37' W 000°12'1 2.7
2018-Jun-06 13:59N 39°36' W 000°10'0 0.0
2018-Jun-06 08:24N 39°36' W 000°10'4 7.8
2018-Jun-06 07:57N 39°33' W 000°08'6611.4
2018-Jun-06 02:10N 38°31' E 000°21'1512.6
2018-Jun-06 00:58N 38°16' E 000°15'612.6
2018-Jun-06 00:31N 38°10' E 000°13'151 4.1
2018-Jun-04 11:28N 35°44' W 000°36'  
2018-Jun-01 17:58N 35°44' W 000°36'0 0.0
2018-Jun-01 13:58N 35°44' W 000°36'0 0.0
2018-May-31 21:21N 35°44' W 000°36'0 0.0
2018-May-31 20:33N 35°44' W 000°36'0 0.1
2018-May-31 20:27N 35°44' W 000°36'0 0.0
2018-May-31 19:45N 35°44' W 000°36'0 0.1
2018-May-31 19:27N 35°44' W 000°36'  

Dump ship's entire track history